createdAt,value
2019-04-05T00:02:05.363Z,5.47
2019-04-05T00:04:34.700Z,5.44
2019-04-05T00:07:04.042Z,5.64
2019-04-05T00:09:33.416Z,5.73
2019-04-05T00:12:02.752Z,5.79
2019-04-05T00:14:32.096Z,5.84
2019-04-05T00:17:01.447Z,5.91
2019-04-05T00:19:30.797Z,5.82
2019-04-05T00:22:00.140Z,5.84
2019-04-05T00:24:29.491Z,5.74
2019-04-05T00:29:38.559Z,5.86
2019-04-05T00:32:26.992Z,5.77
2019-04-05T00:34:56.347Z,5.64
2019-04-05T00:37:25.679Z,5.58
2019-04-05T00:39:55.013Z,5.56
2019-04-05T00:42:24.355Z,5.62
2019-04-05T00:45:13.192Z,5.59
2019-04-05T00:47:42.548Z,5.59
2019-04-05T00:50:12.026Z,5.37
2019-04-05T00:52:41.369Z,5.37
2019-04-05T00:55:10.848Z,5.13
2019-04-05T00:57:40.176Z,5.16
2019-04-05T01:00:49.426Z,5.30
2019-04-05T01:03:18.757Z,5.43
2019-04-05T01:05:48.432Z,5.52
2019-04-05T01:08:17.846Z,5.47
2019-04-05T01:10:47.201Z,5.59
2019-04-05T01:16:18.825Z,5.61
2019-04-05T01:18:48.162Z,5.54
2019-04-05T01:30:23.475Z,5.62
2019-04-05T01:32:52.817Z,5.65
2019-04-05T01:35:22.162Z,5.56
2019-04-05T01:38:31.408Z,5.62
2019-04-05T01:41:06.712Z,5.73
2019-04-05T01:43:36.069Z,5.87
2019-04-05T01:46:05.647Z,5.72
2019-04-05T01:48:34.993Z,5.67
2019-04-05T01:54:06.181Z,5.90
2019-04-05T01:56:35.596Z,5.97
2019-04-05T01:59:04.936Z,5.75
2019-04-05T02:01:34.353Z,5.68
2019-04-05T02:04:03.690Z,5.61
2019-04-05T02:07:12.940Z,5.64
2019-04-05T02:09:42.347Z,5.73
2019-04-05T02:12:11.767Z,5.62
2019-04-05T02:14:41.113Z,5.69
2019-04-05T02:17:10.526Z,5.59
2019-04-05T02:19:39.864Z,5.60
2019-04-05T02:22:09.451Z,5.57
2019-04-05T02:24:38.787Z,5.64
2019-04-05T02:27:08.545Z,5.61
2019-04-05T02:29:37.873Z,5.73
2019-04-05T02:32:07.279Z,5.51
2019-04-05T02:34:36.621Z,5.55
2019-04-05T02:37:45.884Z,5.54
2019-04-05T02:49:50.942Z,5.54
2019-04-05T03:02:08.748Z,5.53
2019-04-05T03:04:49.619Z,5.73
2019-04-05T03:11:10.182Z,5.62
2019-04-05T03:17:25.401Z,5.45
2019-04-05T03:22:57.137Z,5.48
2019-04-05T03:25:26.604Z,5.46
2019-04-05T03:27:55.948Z,5.51
2019-04-05T03:39:50.287Z,5.56
2019-04-05T03:42:59.545Z,5.51
2019-04-05T03:45:28.874Z,5.54
2019-04-05T03:51:04.995Z,5.56
2019-04-05T03:53:34.346Z,5.37
2019-04-05T03:56:03.821Z,5.57
2019-04-05T03:58:33.293Z,5.57
2019-04-05T04:01:02.770Z,5.70
2019-04-05T04:03:43.009Z,5.64
2019-04-05T04:06:12.413Z,5.74
2019-04-05T04:08:41.768Z,5.60
2019-04-05T04:23:49.643Z,5.65
2019-04-05T04:29:20.550Z,5.60
2019-04-05T04:34:51.708Z,5.68
2019-04-05T04:37:32.687Z,5.53
2019-04-05T04:40:02.112Z,5.59
2019-04-05T04:42:42.575Z,5.64
2019-04-05T04:45:32.323Z,5.58
2019-04-05T04:51:27.820Z,5.82
2019-04-05T04:53:57.281Z,5.70
2019-04-05T04:57:06.537Z,5.58
2019-04-05T05:02:50.047Z,5.65
2019-04-05T05:05:31.495Z,5.73
2019-04-05T05:08:00.973Z,5.51
2019-04-05T05:13:44.583Z,5.63
2019-04-05T05:19:16.514Z,5.74
2019-04-05T05:27:50.450Z,5.58
2019-04-05T05:30:19.919Z,5.42
2019-04-05T05:32:49.404Z,5.30
2019-04-05T05:41:21.274Z,5.27
2019-04-05T05:43:50.673Z,5.05
2019-04-05T05:46:20.015Z,5.41
2019-04-05T05:48:55.188Z,5.34
2019-04-05T05:51:35.664Z,5.28
2019-04-05T05:57:39.291Z,5.52
2019-04-05T06:03:11.901Z,5.46
2019-04-05T06:05:47.403Z,5.54
2019-04-05T06:08:16.744Z,5.64
2019-04-05T06:10:46.085Z,5.50
2019-04-05T06:13:15.437Z,5.60
2019-04-05T06:15:44.789Z,5.64
2019-04-05T06:18:14.116Z,5.74
2019-04-05T06:20:43.481Z,5.50
2019-04-05T06:23:12.828Z,5.49
2019-04-05T06:25:42.155Z,5.58
2019-04-05T06:28:11.497Z,5.67
2019-04-05T06:30:40.830Z,5.60
2019-04-05T06:33:10.175Z,5.70
2019-04-05T06:35:39.768Z,5.92
2019-04-05T06:38:29.645Z,6.21
2019-04-05T06:40:58.976Z,6.16
2019-04-05T06:43:28.306Z,6.27
2019-04-05T06:45:57.739Z,6.23
2019-04-05T06:48:29.351Z,6.34
2019-04-05T06:51:07.349Z,6.28
2019-04-05T06:53:36.685Z,5.98
2019-04-05T06:56:06.088Z,5.93
2019-04-05T06:58:35.428Z,6.20
2019-04-05T07:01:24.095Z,6.04
2019-04-05T07:03:55.217Z,6.23
2019-04-05T07:06:29.895Z,6.24
2019-04-05T07:08:59.244Z,6.35
2019-04-05T07:11:28.572Z,6.38
2019-04-05T07:13:57.908Z,6.23
2019-04-05T07:16:27.249Z,6.19
2019-04-05T07:18:56.575Z,6.16
2019-04-05T07:21:26.232Z,6.26
2019-04-05T07:23:55.566Z,6.12
2019-04-05T07:26:24.896Z,6.20
2019-04-05T07:28:54.237Z,6.14
2019-04-05T07:31:23.574Z,6.44
2019-04-05T07:33:52.934Z,6.45
2019-04-05T07:36:22.244Z,6.24
2019-04-05T07:38:53.221Z,6.58
2019-04-05T07:41:22.594Z,6.55
2019-04-05T07:43:51.883Z,6.48
2019-04-05T07:46:21.152Z,6.54
2019-04-05T07:48:50.483Z,6.52
2019-04-05T07:51:22.578Z,6.64
2019-04-05T07:53:56.477Z,6.85
2019-04-05T07:56:25.925Z,6.82
2019-04-05T07:58:55.262Z,7.17
2019-04-05T08:01:24.592Z,6.96
2019-04-05T08:07:14.868Z,6.51
2019-04-05T08:09:44.279Z,6.52
2019-04-05T08:12:13.679Z,6.32
2019-04-05T08:14:43.086Z,6.86
2019-04-05T08:17:12.428Z,6.83
2019-04-05T08:19:41.759Z,6.75
2019-04-05T08:22:11.100Z,6.59
2019-04-05T08:24:40.359Z,6.66
2019-04-05T08:27:09.692Z,6.57
2019-04-05T08:29:39.032Z,6.64
2019-04-05T08:32:14.276Z,6.50
2019-04-05T08:34:44.852Z,6.67
2019-04-05T08:37:14.115Z,6.18
2019-04-05T08:39:43.448Z,6.50
2019-04-05T08:42:12.785Z,6.71
2019-04-05T08:45:01.211Z,6.63
2019-04-05T08:47:30.557Z,6.99
2019-04-05T08:49:59.890Z,6.99
2019-04-05T08:52:29.224Z,6.97
2019-04-05T08:54:58.560Z,7.08
2019-04-05T08:57:27.887Z,7.09
2019-04-05T08:59:57.227Z,7.39
2019-04-05T09:02:26.567Z,7.13
2019-04-05T09:04:55.909Z,7.24
2019-04-05T09:07:25.241Z,7.22
2019-04-05T09:09:54.720Z,7.34
2019-04-05T09:12:24.060Z,7.89
2019-04-05T09:14:53.455Z,7.92
2019-04-05T09:17:22.796Z,7.79
2019-04-05T09:19:54.204Z,7.77
2019-04-05T09:22:30.552Z,7.42
2019-04-05T09:24:59.894Z,7.75
2019-04-05T09:27:29.222Z,8.05
2019-04-05T09:29:58.552Z,8.23
2019-04-05T09:32:28.146Z,8.49
2019-04-05T09:34:57.481Z,8.50
2019-04-05T09:37:26.817Z,8.64
2019-04-05T09:39:56.143Z,9.26
2019-04-05T09:42:25.475Z,9.41
2019-04-05T09:45:13.900Z,9.12
2019-04-05T09:47:43.251Z,8.70
2019-04-05T09:50:52.731Z,8.85
2019-04-05T09:53:22.062Z,9.32
2019-04-05T09:55:51.654Z,9.69
2019-04-05T09:58:26.458Z,9.33
2019-04-05T10:00:55.882Z,9.76
2019-04-05T10:03:25.152Z,9.50
2019-04-05T10:05:54.479Z,9.01
2019-04-05T10:08:23.813Z,9.48
2019-04-05T10:10:53.207Z,9.39
2019-04-05T10:13:22.532Z,9.04
2019-04-05T10:15:51.869Z,9.64
2019-04-05T10:18:21.499Z,9.82
2019-04-05T10:20:50.842Z,9.94
2019-04-05T10:23:20.173Z,9.59
2019-04-05T10:25:49.505Z,9.49
2019-04-05T10:28:18.835Z,9.29
2019-04-05T10:30:48.163Z,9.65
2019-04-05T10:33:17.493Z,9.55
2019-04-05T10:35:46.826Z,9.69
2019-04-05T10:38:16.152Z,9.66
2019-04-05T10:40:45.488Z,9.10
2019-04-05T10:43:14.818Z,9.65
2019-04-05T10:45:44.157Z,10.02
2019-04-05T10:48:13.491Z,10.40
2019-04-05T10:51:02.178Z,10.15
2019-04-05T10:53:31.546Z,10.11
2019-04-05T10:56:00.879Z,9.97
2019-04-05T10:58:36.133Z,9.99
2019-04-05T11:01:11.423Z,9.90
2019-04-05T11:03:40.756Z,10.85
2019-04-05T11:06:10.339Z,10.79
2019-04-05T11:08:39.669Z,10.76
2019-04-05T11:11:09.061Z,10.15
2019-04-05T11:13:38.343Z,10.07
2019-04-05T11:16:07.676Z,11.08
2019-04-05T11:18:37.010Z,10.87
2019-04-05T11:21:06.366Z,10.50
2019-04-05T11:23:35.678Z,9.96
2019-04-05T11:26:05.020Z,10.53
2019-04-05T11:28:34.352Z,10.24
2019-04-05T11:31:03.752Z,10.08
2019-04-05T11:33:33.230Z,10.15
2019-04-05T11:36:02.633Z,10.70
2019-04-05T11:38:32.116Z,10.24
2019-04-05T11:41:01.613Z,10.31
2019-04-05T11:44:10.855Z,9.71
2019-04-05T11:53:02.698Z,10.17
2019-04-05T11:55:32.027Z,10.03
2019-04-05T11:58:01.379Z,10.34
2019-04-05T12:00:55.717Z,10.04
2019-04-05T12:06:20.522Z,10.07
2019-04-05T12:08:49.875Z,9.94
2019-04-05T12:11:19.204Z,10.17
2019-04-05T12:13:48.537Z,10.19
2019-04-05T12:16:17.875Z,10.30
2019-04-05T12:18:47.210Z,10.67
2019-04-05T12:21:16.554Z,10.92
2019-04-05T12:23:45.892Z,10.90
2019-04-05T12:26:15.217Z,10.49
2019-04-05T12:28:44.557Z,10.29
2019-04-05T12:31:13.957Z,10.68
2019-04-05T12:33:46.633Z,10.79
2019-04-05T12:36:22.012Z,10.53
2019-04-05T12:39:01.565Z,10.61
2019-04-05T12:41:42.524Z,10.31
2019-04-05T12:44:21.553Z,10.37
2019-04-05T12:46:50.885Z,10.34
2019-04-05T12:49:20.222Z,10.38
2019-04-05T12:51:49.556Z,9.83
2019-04-05T12:54:18.881Z,9.59
2019-04-05T12:56:48.222Z,10.06
2019-04-05T12:59:17.558Z,10.33
2019-04-05T13:02:06.193Z,10.11
2019-04-05T13:04:35.500Z,10.29
2019-04-05T13:07:04.827Z,9.98
2019-04-05T13:09:55.051Z,10.19
2019-04-05T13:12:29.971Z,10.27
2019-04-05T13:18:33.319Z,9.62
2019-04-05T13:21:14.461Z,9.62
2019-04-05T13:23:52.782Z,9.41
2019-04-05T13:26:22.119Z,9.66
2019-04-05T13:28:51.447Z,9.20
2019-04-05T13:31:20.780Z,9.30
2019-04-05T13:33:54.362Z,9.45
2019-04-05T13:36:27.007Z,9.38
2019-04-05T13:38:59.603Z,9.20
2019-04-05T13:42:26.377Z,9.03
2019-04-05T13:44:55.714Z,9.29
2019-04-05T13:47:24.971Z,9.16
2019-04-05T13:49:56.663Z,9.01
2019-04-05T13:52:26.015Z,9.07
2019-04-05T13:54:55.353Z,9.21
2019-04-05T13:57:24.697Z,9.11
2019-04-05T13:59:54.039Z,9.39
2019-04-05T14:02:23.382Z,9.40
2019-04-05T14:04:53.870Z,9.53
2019-04-05T14:07:28.924Z,9.77
2019-04-05T14:09:58.270Z,9.65
2019-04-05T14:12:27.863Z,9.75
2019-04-05T14:14:57.194Z,9.60
2019-04-05T14:17:26.523Z,9.39
2019-04-05T14:19:57.507Z,9.76
2019-04-05T14:22:26.834Z,9.67
2019-04-05T14:24:56.768Z,9.50
2019-04-05T14:27:35.077Z,9.43
2019-04-05T14:33:11.437Z,9.34
2019-04-05T14:35:42.426Z,9.57
2019-04-05T14:38:11.975Z,9.44
2019-04-05T14:41:01.888Z,9.47
2019-04-05T14:43:31.234Z,9.52
2019-04-05T14:46:02.760Z,9.50
2019-04-05T14:48:37.162Z,9.71
2019-04-05T14:51:06.495Z,9.64
2019-04-05T14:53:35.906Z,9.60
2019-04-05T14:56:05.247Z,9.53
2019-04-05T14:58:53.799Z,9.67
2019-04-05T15:01:23.372Z,9.79
2019-04-05T15:03:53.309Z,9.64
2019-04-05T15:06:26.530Z,9.70
2019-04-05T15:12:09.815Z,9.54
2019-04-05T15:14:39.143Z,9.57
2019-04-05T15:17:10.115Z,9.43
2019-04-05T15:19:39.439Z,9.42
2019-04-05T15:22:11.748Z,9.32
2019-04-05T15:24:59.026Z,9.25
2019-04-05T15:27:28.368Z,9.33
2019-04-05T15:29:57.690Z,9.19
2019-04-05T15:35:46.702Z,9.28
2019-04-05T15:38:16.032Z,9.30
2019-04-05T15:40:47.007Z,9.30
2019-04-05T15:43:16.335Z,9.25
2019-04-05T15:45:45.659Z,9.21
2019-04-05T15:48:15.186Z,9.38
2019-04-05T15:50:44.536Z,9.32
2019-04-05T15:53:13.883Z,9.15
2019-04-05T15:55:43.199Z,9.17
2019-04-05T15:58:12.524Z,9.21
2019-04-05T16:01:21.769Z,9.13
2019-04-05T16:03:51.099Z,9.15
2019-04-05T16:06:20.437Z,9.08
2019-04-05T16:08:49.764Z,9.21
2019-04-05T16:11:19.092Z,9.21
2019-04-05T16:13:48.434Z,9.15
2019-04-05T16:16:17.859Z,9.20
2019-04-05T16:18:47.259Z,9.30
2019-04-05T16:21:16.583Z,9.11
2019-04-05T16:23:45.962Z,9.17
2019-04-05T16:26:15.296Z,9.18
2019-04-05T16:28:44.561Z,9.20
2019-04-05T16:31:13.899Z,9.10
2019-04-05T16:33:43.228Z,9.17
2019-04-05T16:36:12.564Z,9.00
2019-04-05T16:38:41.904Z,9.14
2019-04-05T16:41:11.662Z,9.10
2019-04-05T16:43:41.291Z,9.07
2019-04-05T16:46:10.624Z,9.01
2019-04-05T16:48:40.081Z,9.03
2019-04-05T16:51:09.951Z,9.10
2019-04-05T16:56:20.488Z,9.02
2019-04-05T16:58:49.975Z,8.92
2019-04-05T17:01:27.008Z,8.76
2019-04-05T17:04:09.834Z,8.83
2019-04-05T17:06:44.954Z,8.91
2019-04-05T17:09:14.525Z,8.91
2019-04-05T17:11:43.971Z,8.95
2019-04-05T17:14:13.348Z,8.77
2019-04-05T17:16:42.727Z,8.78
2019-04-05T17:19:12.078Z,8.72
2019-04-05T17:21:41.443Z,8.70
2019-04-05T17:24:10.841Z,8.74
2019-04-05T17:26:40.490Z,8.56
2019-04-05T17:29:09.847Z,8.34
2019-04-05T17:31:39.280Z,8.31
2019-04-05T17:34:08.604Z,8.47
2019-04-05T17:36:38.211Z,8.49
2019-04-05T17:42:30.965Z,8.37
2019-04-05T17:45:01.092Z,8.48
2019-04-05T17:47:30.426Z,8.54
2019-04-05T17:49:59.813Z,8.49
2019-04-05T17:52:29.212Z,8.60
2019-04-05T17:54:58.598Z,8.43
2019-04-05T17:57:28.001Z,8.42
2019-04-05T17:59:57.952Z,8.46
2019-04-05T18:05:23.299Z,8.51
2019-04-05T18:07:52.953Z,8.65
2019-04-05T18:10:22.845Z,8.57
2019-04-05T18:13:11.624Z,8.65
2019-04-05T18:15:51.860Z,8.59
2019-04-05T18:18:31.397Z,8.60
2019-04-05T18:21:00.857Z,8.68
2019-04-05T18:23:30.372Z,8.65
2019-04-05T18:25:59.879Z,8.59
2019-04-05T18:28:48.467Z,8.58
2019-04-05T18:31:17.964Z,8.58
2019-04-05T18:33:47.507Z,8.46
2019-04-05T18:36:17.346Z,8.54
2019-04-05T18:38:46.903Z,8.51
2019-04-05T18:41:16.460Z,8.50
2019-04-05T18:43:46.329Z,8.41
2019-04-05T18:46:16.065Z,8.47
2019-04-05T18:48:45.640Z,8.53
2019-04-05T18:51:15.206Z,8.59
2019-04-05T18:53:44.775Z,8.63
2019-04-05T18:56:15.373Z,8.65
2019-04-05T18:58:44.941Z,8.59
2019-04-05T19:01:14.520Z,8.60
2019-04-05T19:03:44.092Z,8.62
2019-04-05T19:06:13.681Z,8.64
2019-04-05T19:08:43.263Z,8.51
2019-04-05T19:11:13.852Z,8.52
2019-04-05T19:13:43.431Z,8.54
2019-04-05T19:16:13.029Z,8.57
2019-04-05T19:18:42.618Z,8.47
2019-04-05T19:21:12.222Z,8.35
2019-04-05T19:23:50.663Z,8.45
2019-04-05T19:26:13.042Z,8.45
2019-04-05T19:28:42.643Z,8.51
2019-04-05T19:48:53.952Z,8.52
2019-04-05T19:51:23.575Z,8.53
2019-04-05T19:54:01.263Z,8.50
2019-04-05T19:56:27.823Z,8.46
2019-04-05T19:58:57.438Z,8.49
2019-04-05T20:01:27.006Z,8.50
2019-04-05T20:03:56.961Z,8.45
2019-04-05T20:06:26.538Z,8.47
2019-04-05T20:08:56.116Z,8.45
2019-04-05T20:11:25.695Z,8.47
2019-04-05T20:14:05.322Z,8.49
2019-04-05T20:16:37.744Z,8.46
2019-04-05T20:19:08.445Z,8.49
2019-04-05T20:21:44.517Z,8.48
2019-04-05T20:24:26.208Z,8.39
2019-04-05T20:27:12.160Z,8.48
2019-04-05T20:29:50.005Z,8.57
2019-04-05T20:32:21.402Z,8.49
2019-04-05T20:35:04.417Z,8.50
2019-04-05T20:37:34.818Z,8.51
2019-04-05T20:40:08.382Z,8.58
2019-04-05T20:42:42.316Z,8.51
2019-04-05T20:48:17.291Z,8.46
2019-04-05T20:50:50.315Z,8.49
2019-04-05T20:56:13.427Z,8.40
2019-04-05T20:59:02.596Z,8.48
2019-04-05T21:01:32.109Z,8.50
2019-04-05T21:04:01.581Z,8.44
2019-04-05T21:06:30.978Z,8.44
2019-04-05T21:09:00.784Z,8.36
2019-04-05T21:11:30.154Z,8.27
2019-04-05T21:13:59.525Z,8.15
2019-04-05T21:16:28.868Z,7.96
2019-04-05T21:18:58.236Z,7.83
2019-04-05T21:21:27.592Z,7.75
2019-04-05T21:23:56.936Z,7.66
2019-04-05T21:26:26.286Z,7.53
2019-04-05T21:28:55.617Z,7.52
2019-04-05T21:31:24.953Z,7.39
2019-04-05T21:33:54.222Z,7.30
2019-04-05T21:36:23.554Z,7.35
2019-04-05T21:38:53.878Z,7.25
2019-04-05T21:41:23.139Z,7.16
2019-04-05T21:43:52.476Z,7.22
2019-04-05T21:46:21.817Z,7.13
2019-04-05T21:48:51.152Z,6.95
2019-04-05T21:51:20.496Z,6.95
2019-04-05T21:53:50.056Z,6.87
2019-04-05T21:56:19.402Z,6.89
2019-04-05T21:58:48.745Z,6.92
2019-04-05T22:01:19.085Z,6.84
2019-04-05T22:03:48.448Z,6.77
2019-04-05T22:06:17.767Z,6.72
2019-04-05T22:08:47.093Z,6.75
2019-04-05T22:11:17.573Z,6.71
2019-04-05T22:13:46.911Z,6.64
2019-04-05T22:16:16.258Z,6.63
2019-04-05T22:18:45.590Z,6.56
2019-04-05T22:21:14.928Z,6.50
2019-04-05T22:23:44.203Z,6.45
2019-04-05T22:26:13.538Z,6.41
2019-04-05T22:28:43.994Z,6.35
2019-04-05T22:31:13.326Z,6.25
2019-04-05T22:33:42.662Z,6.18
2019-04-05T22:36:12.026Z,6.27
2019-04-05T22:38:41.362Z,6.23
2019-04-05T22:41:10.698Z,6.24
2019-04-05T22:43:40.042Z,6.17
2019-04-05T22:46:09.382Z,6.18
2019-04-05T22:48:38.719Z,6.22
2019-04-05T22:51:08.066Z,6.13
2019-04-05T22:53:37.815Z,6.08
2019-04-05T22:56:07.156Z,6.04
2019-04-05T22:58:37.414Z,6.01
2019-04-05T23:01:06.746Z,5.96
2019-04-05T23:03:36.104Z,5.84
2019-04-05T23:06:05.435Z,5.81
2019-04-05T23:08:34.774Z,5.81
2019-04-05T23:11:04.121Z,5.81
2019-04-05T23:13:33.666Z,5.80
2019-04-05T23:16:03.058Z,5.78
2019-04-05T23:18:32.350Z,5.75
2019-04-05T23:21:02.675Z,5.77
2019-04-05T23:23:32.035Z,5.71
2019-04-05T23:26:01.354Z,5.66
2019-04-05T23:28:31.688Z,5.62
2019-04-05T23:31:01.289Z,5.68
2019-04-05T23:33:30.630Z,5.57
2019-04-05T23:35:59.976Z,5.48
2019-04-05T23:38:29.308Z,5.48
2019-04-05T23:40:58.647Z,5.47
2019-04-05T23:43:27.992Z,5.47
2019-04-05T23:45:57.347Z,5.50
2019-04-05T23:48:26.698Z,5.45
2019-04-05T23:50:56.014Z,5.42
2019-04-05T23:53:25.345Z,5.40
2019-04-05T23:55:55.527Z,5.38
2019-04-05T23:58:24.921Z,5.34
